LRSV/SCV METAR and TAF weather

Enter ICAO airport designator
Station Type Date Time Source
LRSV METAR 2019/06/19 00:30 UTC NOAA

LRSV 190030Z 26005KT CAVOK 18/17 Q1018 R16/29//95


Station Type Date Time Source
LRSV Decoded METAR 2019/06/19 00:30 UTC NOAA

Suceava / Salcea, Romania (LRSV) 47-39N 026-15E 351M
Jun 18, 2019 - 08:30 PM EDT / 2019.06.19 0030 UTC
Wind: from the W (260 degrees) at 6 MPH (5 KT):0
Visibility: greater than 7 mile(s):0
Temperature: 64 F (18 C)
Dew Point: 62 F (17 C)
Relative Humidity: 93%
Pressure (altimeter): 30.06 in. Hg (1018 hPa)
ob: LRSV 190030Z 26005KT CAVOK 18/17 Q1018 R16/29//95
cycle: 0

Station Type Date Time Source
LRSV TAF 2014/07/19 18:48 UTC NOAA

TAF LRSV 191800Z 1918/2024 CNL

Example: see airport list